Time;durP1;ratioP1;P1;durP2;ratioP2;P2;SDS_P1;SDS_P2;PMS_P1;PMS_P2;Temp;Humidity;BMP_temperature;BMP_pressure;BME280_temperature;BME280_humidity;BME280_pressure;Samples;Min_cycle;Max_cycle;Signal;HPM_P1;HPM_P2
2023/06/24 00:00:43;;;;;;;6.70;6.10;;;;;;;26.92;65.22;101578.09;106870;1272;25319;-47
2023/06/24 00:03:11;;;;;;;7.50;6.70;;;;;;;26.91;65.30;101571.89;106995;1263;25322;-49
2023/06/24 00:05:39;;;;;;;7.70;6.70;;;;;;;26.92;65.41;101574.55;107093;1267;25409;-50
2023/06/24 00:08:08;;;;;;;7.90;7.10;;;;;;;26.90;65.38;101575.70;107125;1266;25321;-47
2023/06/24 00:10:36;;;;;;;8.10;7.30;;;;;;;26.90;65.44;101578.73;107057;1263;25399;-48
2023/06/24 00:13:03;;;;;;;9.40;6.80;;;;;;;26.89;65.56;101577.64;107171;1265;25443;-48
2023/06/24 00:15:31;;;;;;;7.70;6.90;;;;;;;26.88;65.57;101575.74;106961;1260;22566;-48
2023/06/24 00:18:05;;;;;;;8.90;7.30;;;;;;;26.87;65.46;101571.55;106994;1267;25504;-50
2023/06/24 00:20:32;;;;;;;13.70;7.10;;;;;;;26.85;65.37;101568.63;107166;1265;22534;-50
2023/06/24 00:23:00;;;;;;;8.20;7.40;;;;;;;26.83;65.37;101571.45;106892;1260;22637;-52
2023/06/24 00:25:27;;;;;;;7.60;6.80;;;;;;;26.81;65.37;101574.45;107096;1266;25350;-49
2023/06/24 00:27:55;;;;;;;7.50;6.90;;;;;;;26.79;65.31;101577.46;106836;1275;25350;-48
2023/06/24 00:30:22;;;;;;;7.50;6.70;;;;;;;26.77;65.36;101576.77;107054;1265;25501;-52
2023/06/24 00:32:49;;;;;;;8.60;6.80;;;;;;;26.74;65.37;101569.90;107112;1260;25367;-48
2023/06/24 00:35:17;;;;;;;8.00;7.30;;;;;;;26.72;65.35;101565.04;107173;1266;23200;-54
2023/06/24 00:37:46;;;;;;;7.90;7.20;;;;;;;26.70;65.32;101565.15;107046;1268;25347;-54
2023/06/24 00:40:16;;;;;;;10.20;7.20;;;;;;;26.67;65.33;101562.16;106900;1271;25321;-49
2023/06/24 00:42:44;;;;;;;10.00;7.40;;;;;;;26.65;65.38;101557.86;106585;1269;25308;-50
2023/06/24 00:45:11;;;;;;;9.60;7.80;;;;;;;26.62;65.46;101552.06;106608;1263;25312;-51
2023/06/24 00:47:40;;;;;;;8.80;7.60;;;;;;;26.58;65.61;101552.02;107078;1265;25346;-53
2023/06/24 00:50:07;;;;;;;7.60;7.00;;;;;;;26.55;65.71;101552.09;106906;1270;23806;-51
2023/06/24 00:52:38;;;;;;;7.60;6.90;;;;;;;26.52;65.67;101551.04;107016;1265;25332;-50
2023/06/24 00:55:06;;;;;;;7.60;7.00;;;;;;;26.50;65.76;101548.73;106784;1259;25443;-51
2023/06/24 00:57:38;;;;;;;11.10;7.30;;;;;;;26.48;65.95;101539.23;107060;1259;26628;-49
2023/06/24 01:00:16;;;;;;;8.50;7.30;;;;;;;26.47;65.91;101541.67;107174;1266;25423;-49
2023/06/24 01:02:47;;;;;;;10.00;7.50;;;;;;;26.45;66.04;101539.68;107184;1266;25340;-49
2023/06/24 01:05:14;;;;;;;7.50;6.80;;;;;;;26.43;66.03;101536.06;107190;1263;25363;-50
2023/06/24 01:07:42;;;;;;;11.30;7.00;;;;;;;26.41;66.08;101533.73;106914;1266;25470;-50
2023/06/24 01:10:11;;;;;;;8.20;7.30;;;;;;;26.39;66.04;101541.88;107031;1271;25401;-49
2023/06/24 01:12:40;;;;;;;10.60;7.20;;;;;;;26.38;66.05;101541.83;107076;1270;24201;-50
2023/06/24 01:15:08;;;;;;;10.30;7.00;;;;;;;26.36;65.98;101539.13;107140;1254;22639;-49
2023/06/24 01:17:53;;;;;;;7.60;6.90;;;;;;;26.35;65.93;101538.67;107098;1256;22524;-52
2023/06/24 01:20:22;;;;;;;7.00;6.40;;;;;;;26.33;65.79;101535.98;107161;1265;25341;-50
2023/06/24 01:23:06;;;;;;;8.00;7.30;;;;;;;26.31;65.84;101538.91;107144;1265;22767;-50
2023/06/24 01:25:41;;;;;;;8.90;7.20;;;;;;;26.30;65.78;101541.23;107080;1265;25443;-49
2023/06/24 01:28:39;;;;;;;8.10;7.20;;;;;;;26.28;65.61;101543.44;107102;1270;25353;-49
2023/06/24 01:31:32;;;;;;;7.30;6.60;;;;;;;26.27;65.70;101542.16;107089;1265;25478;-49
2023/06/24 01:34:08;;;;;;;8.10;6.90;;;;;;;26.25;65.65;101547.79;106374;1268;25338;-50
2023/06/24 01:36:37;;;;;;;7.30;6.60;;;;;;;26.23;65.54;101550.09;106291;1274;25338;-49
2023/06/24 01:39:06;;;;;;;10.30;6.90;;;;;;;26.21;65.59;101547.23;106360;1270;25383;-51
2023/06/24 01:41:41;;;;;;;7.50;6.70;;;;;;;26.20;65.65;101553.13;106367;1274;22536;-50
2023/06/24 01:44:10;;;;;;;7.40;6.70;;;;;;;26.19;65.60;101559.66;106353;1272;24199;-50
2023/06/24 01:46:37;;;;;;;7.10;6.50;;;;;;;26.17;65.64;101562.45;106324;1273;25483;-50
2023/06/24 01:49:07;;;;;;;7.40;6.70;;;;;;;26.15;65.64;101559.00;106284;1269;25349;-49
2023/06/24 01:51:34;;;;;;;9.50;6.30;;;;;;;26.13;65.70;101559.32;106335;1274;25361;-49
2023/06/24 01:54:05;;;;;;;7.50;6.80;;;;;;;26.13;65.62;101564.37;106236;1283;25371;-49
2023/06/24 01:56:34;;;;;;;9.90;6.80;;;;;;;26.12;65.51;101563.92;106319;1276;25504;-50
2023/06/24 01:59:03;;;;;;;8.20;7.00;;;;;;;26.09;65.52;101561.63;106034;1275;22536;-50
2023/06/24 02:01:32;;;;;;;8.20;7.30;;;;;;;26.08;65.27;101565.11;106447;1273;22547;-49
2023/06/24 02:04:00;;;;;;;9.70;6.80;;;;;;;26.06;65.21;101564.30;106300;1267;25496;-49
2023/06/24 02:06:28;;;;;;;8.80;6.70;;;;;;;26.04;65.19;101567.85;106363;1268;25419;-50
2023/06/24 02:09:01;;;;;;;9.30;6.60;;;;;;;26.02;65.08;101566.20;106413;1266;23204;-50
2023/06/24 02:11:28;;;;;;;10.50;6.90;;;;;;;26.01;65.03;101567.21;106602;1268;25401;-51
2023/06/24 02:13:55;;;;;;;8.10;6.40;;;;;;;26.00;65.01;101569.74;106933;1267;25367;-51
2023/06/24 02:16:22;;;;;;;6.40;5.80;;;;;;;25.97;65.04;101571.20;107049;1266;24254;-51
2023/06/24 02:18:49;;;;;;;6.90;6.30;;;;;;;25.89;65.28;101569.52;106901;1270;25427;-49
2023/06/24 02:21:18;;;;;;;7.10;6.00;;;;;;;25.87;65.55;101573.70;106843;1269;24260;-51
2023/06/24 02:23:46;;;;;;;7.20;6.50;;;;;;;25.86;65.64;101571.13;106834;1268;25363;-50
2023/06/24 02:26:13;;;;;;;6.00;5.40;;;;;;;25.84;65.72;101567.73;107173;1265;25412;-49
2023/06/24 02:28:40;;;;;;;6.80;6.10;;;;;;;25.82;66.12;101566.04;106971;1266;25373;-50
2023/06/24 02:31:07;;;;;;;6.50;5.90;;;;;;;25.81;66.08;101571.42;107245;1253;25318;-50
2023/06/24 02:33:35;;;;;;;7.30;6.70;;;;;;;25.82;66.00;101572.43;107119;1264;25363;-51
2023/06/24 02:36:02;;;;;;;7.60;6.30;;;;;;;25.83;66.14;101577.19;106868;1260;25349;-49
2023/06/24 02:38:29;;;;;;;6.90;6.20;;;;;;;25.82;66.18;101583.95;106854;1262;25351;-50
2023/06/24 02:40:56;;;;;;;11.00;6.20;;;;;;;25.83;66.13;101581.06;106941;1267;25440;-55
2023/06/24 02:43:24;;;;;;;5.80;5.30;;;;;;;25.85;66.17;101585.23;106921;1270;25522;-49
2023/06/24 02:45:51;;;;;;;6.40;5.80;;;;;;;25.86;66.14;101586.60;107056;1271;25321;-54
2023/06/24 02:48:18;;;;;;;7.20;6.60;;;;;;;25.87;66.14;101589.73;106846;1268;25332;-48
2023/06/24 02:50:45;;;;;;;6.60;6.00;;;;;;;25.88;66.01;101591.80;107176;1258;24364;-48
2023/06/24 02:53:14;;;;;;;7.30;5.90;;;;;;;25.89;66.01;101591.90;106912;1256;25342;-50
2023/06/24 02:55:44;;;;;;;8.10;5.60;;;;;;;25.90;65.98;101589.64;107112;1251;25402;-49
2023/06/24 02:58:11;;;;;;;7.00;6.20;;;;;;;25.92;65.81;101591.66;106761;1267;23374;-50
2023/06/24 03:01:06;;;;;;;13.20;7.20;;;;;;;25.94;65.93;101587.26;106892;1267;25312;-48
2023/06/24 03:03:49;;;;;;;10.40;6.90;;;;;;;25.95;65.60;101588.20;107047;1267;25357;-51
2023/06/24 03:06:17;;;;;;;8.30;6.40;;;;;;;25.96;65.64;101589.75;106882;1263;25465;-55
2023/06/24 03:08:45;;;;;;;6.60;5.90;;;;;;;25.97;65.49;101588.60;106771;1268;25332;-52
2023/06/24 03:11:13;;;;;;;6.20;5.60;;;;;;;25.98;65.50;101589.77;106992;1270;22547;-51
2023/06/24 03:13:41;;;;;;;7.10;6.20;;;;;;;25.99;65.44;101590.45;107190;1256;25372;-49
2023/06/24 03:16:18;;;;;;;6.60;5.90;;;;;;;26.00;65.49;101588.92;107052;1267;25395;-50
2023/06/24 03:18:51;;;;;;;7.40;6.60;;;;;;;26.02;65.48;101588.28;106748;1267;25319;-49
2023/06/24 03:21:19;;;;;;;7.30;6.00;;;;;;;26.10;65.20;101588.02;107168;1259;22532;-49
2023/06/24 03:23:46;;;;;;;7.10;6.30;;;;;;;26.14;65.03;101584.38;107042;1257;25382;-49
2023/06/24 03:26:14;;;;;;;8.60;6.70;;;;;;;26.16;64.98;101585.65;106871;1263;25519;-49
2023/06/24 03:28:42;;;;;;;7.40;6.00;;;;;;;26.18;65.00;101591.70;107078;1261;25318;-52
2023/06/24 03:31:15;;;;;;;10.50;6.80;;;;;;;26.21;64.84;101590.42;107111;1263;22598;-51
2023/06/24 03:33:44;;;;;;;7.80;6.80;;;;;;;26.23;64.89;101582.59;106872;1266;25778;-51
2023/06/24 03:36:12;;;;;;;7.40;6.60;;;;;;;26.26;64.89;101580.23;107022;1264;25409;-49
2023/06/24 03:38:40;;;;;;;6.60;6.00;;;;;;;26.32;64.85;101587.07;106926;1267;22540;-49
2023/06/24 03:41:07;;;;;;;7.00;6.30;;;;;;;26.40;64.84;101592.34;107060;1264;25398;-49
2023/06/24 03:43:35;;;;;;;8.50;6.10;;;;;;;26.55;65.37;101596.23;106736;1267;25452;-54
2023/06/24 03:46:02;;;;;;;6.80;5.90;;;;;;;26.78;64.84;101593.72;107052;1263;25347;-51
2023/06/24 03:48:29;;;;;;;6.50;6.00;;;;;;;27.09;64.03;101595.06;106928;1266;23362;-48
2023/06/24 03:50:56;;;;;;;6.70;6.00;;;;;;;27.40;62.90;101597.61;107047;1272;25387;-49
2023/06/24 03:53:23;;;;;;;6.30;5.70;;;;;;;27.69;61.80;101597.64;107282;1267;25339;-49
2023/06/24 03:55:51;;;;;;;8.70;6.90;;;;;;;28.00;60.49;101599.42;107045;1267;25373;-51
2023/06/24 03:58:20;;;;;;;6.50;5.70;;;;;;;28.28;59.38;101599.02;106807;1273;25363;-48
2023/06/24 04:00:49;;;;;;;6.40;5.70;;;;;;;28.52;58.44;101601.86;107105;1260;25271;-49
2023/06/24 04:03:19;;;;;;;6.50;5.60;;;;;;;28.69;57.73;101602.20;107037;1256;25350;-53
2023/06/24 04:05:46;;;;;;;7.60;5.70;;;;;;;28.82;57.12;101601.46;106976;1261;25340;-48
2023/06/24 04:08:14;;;;;;;5.80;5.00;;;;;;;28.89;56.59;101603.13;106797;1267;25401;-48
2023/06/24 04:10:43;;;;;;;6.10;5.50;;;;;;;28.95;56.14;101604.09;106904;1267;25319;-50
2023/06/24 04:13:11;;;;;;;6.50;5.30;;;;;;;29.03;55.90;101602.77;107101;1256;25360;-53
2023/06/24 04:15:38;;;;;;;6.50;5.50;;;;;;;29.15;55.60;101604.35;107034;1267;25399;-48
2023/06/24 04:18:07;;;;;;;7.20;5.10;;;;;;;29.32;54.95;101600.91;106832;1258;24243;-52
2023/06/24 04:20:34;;;;;;;7.30;5.50;;;;;;;29.41;54.08;101601.33;106919;1267;25322;-49
2023/06/24 04:23:05;;;;;;;5.70;5.20;;;;;;;29.41;53.68;101599.70;106894;1254;23730;-49
2023/06/24 04:25:34;;;;;;;8.30;5.70;;;;;;;29.31;53.73;101596.66;106774;1266;25388;-51
2023/06/24 04:28:02;;;;;;;6.20;5.60;;;;;;;29.22;53.90;101601.95;106968;1269;25481;-49
2023/06/24 04:30:29;;;;;;;6.50;5.10;;;;;;;29.08;54.14;101607.30;106917;1267;25331;-52
2023/06/24 04:32:56;;;;;;;7.80;5.80;;;;;;;28.90;54.62;101609.70;106841;1265;22777;-51
2023/06/24 04:35:24;;;;;;;6.60;6.00;;;;;;;28.73;55.13;101606.31;106976;1264;24242;-50
2023/06/24 04:37:51;;;;;;;6.10;5.60;;;;;;;28.63;55.36;101604.33;106549;1260;25469;-50
2023/06/24 04:40:19;;;;;;;7.30;5.60;;;;;;;28.54;55.66;101606.32;106667;1273;25325;-49
2023/06/24 04:42:46;;;;;;;7.80;5.60;;;;;;;28.44;56.10;101606.98;107148;1273;23886;-50
2023/06/24 04:45:13;;;;;;;7.40;6.00;;;;;;;28.37;56.23;101607.76;107153;1264;24198;-52
2023/06/24 04:47:41;;;;;;;14.00;5.40;;;;;;;28.31;56.41;101608.58;107164;1263;25402;-49
2023/06/24 04:50:09;;;;;;;6.70;5.00;;;;;;;28.26;56.54;101604.89;106674;1273;25321;-50
2023/06/24 04:52:36;;;;;;;5.50;5.00;;;;;;;28.22;56.71;101604.90;107077;1254;22743;-49
2023/06/24 04:55:04;;;;;;;5.80;5.20;;;;;;;28.21;56.79;101602.16;107144;1270;24033;-51
2023/06/24 04:57:32;;;;;;;5.80;5.30;;;;;;;28.18;56.94;101600.79;106822;1257;24279;-50
2023/06/24 04:59:59;;;;;;;7.10;5.10;;;;;;;28.10;57.31;101603.04;107131;1264;23264;-52
2023/06/24 05:02:26;;;;;;;6.00;5.20;;;;;;;28.09;57.49;101599.19;107028;1261;22536;-49
2023/06/24 05:04:53;;;;;;;9.10;6.00;;;;;;;28.04;57.89;101596.27;107041;1264;25375;-52
2023/06/24 05:07:20;;;;;;;5.70;5.10;;;;;;;28.19;57.76;101597.81;107041;1267;25353;-50
2023/06/24 05:09:48;;;;;;;7.20;5.70;;;;;;;28.35;57.33;101592.72;107050;1264;25449;-49
2023/06/24 05:12:15;;;;;;;6.00;5.20;;;;;;;28.54;56.94;101594.88;107138;1267;25350;-49
2023/06/24 05:14:42;;;;;;;6.50;5.60;;;;;;;28.76;56.62;101594.23;107192;1264;25392;-49
2023/06/24 05:17:09;;;;;;;5.70;5.00;;;;;;;29.05;55.84;101596.13;107081;1257;25350;-49
2023/06/24 05:19:36;;;;;;;7.20;5.20;;;;;;;29.36;55.14;101592.34;107001;1261;25345;-49
2023/06/24 05:22:03;;;;;;;5.80;5.30;;;;;;;29.71;54.45;101587.20;107104;1261;25470;-49
2023/06/24 05:24:32;;;;;;;9.80;5.00;;;;;;;30.12;53.07;101585.99;107089;1261;25471;-50
2023/06/24 05:27:03;;;;;;;5.50;4.60;;;;;;;30.48;52.02;101580.05;107107;1258;25394;-49
2023/06/24 05:29:31;;;;;;;5.20;4.50;;;;;;;30.77;51.03;101575.56;106862;1264;24326;-50
2023/06/24 05:31:58;;;;;;;5.70;5.20;;;;;;;30.96;50.72;101573.34;106798;1267;22551;-49
2023/06/24 05:34:26;;;;;;;8.30;5.80;;;;;;;31.09;50.17;101568.22;107201;1261;25321;-48
2023/06/24 05:36:53;;;;;;;5.40;4.90;;;;;;;31.13;49.82;101569.59;107031;1258;25322;-49
2023/06/24 05:39:20;;;;;;;5.40;5.00;;;;;;;31.12;49.78;101570.78;107091;1251;25318;-48
2023/06/24 05:41:50;;;;;;;5.90;5.30;;;;;;;31.09;49.84;101574.27;107072;1261;25398;-51
2023/06/24 05:44:18;;;;;;;5.60;4.90;;;;;;;31.03;49.91;101564.63;107117;1257;25472;-49
2023/06/24 05:46:45;;;;;;;4.90;4.40;;;;;;;31.01;49.97;101563.60;106772;1268;25337;-49
2023/06/24 05:49:12;;;;;;;6.10;5.20;;;;;;;31.03;50.02;101554.65;107104;1258;25332;-51
2023/06/24 05:51:40;;;;;;;5.60;5.00;;;;;;;31.08;50.03;101551.23;107065;1257;25453;-48
2023/06/24 05:54:07;;;;;;;5.30;4.80;;;;;;;31.20;49.81;101551.89;106878;1260;25409;-50
2023/06/24 05:56:36;;;;;;;5.60;5.10;;;;;;;31.36;49.62;101559.25;107079;1256;25325;-51
2023/06/24 05:59:06;;;;;;;5.80;5.20;;;;;;;31.59;48.96;101558.52;107078;1257;25403;-50
2023/06/24 06:01:35;;;;;;;5.50;5.00;;;;;;;31.82;48.37;101561.89;107154;1256;25346;-48
2023/06/24 06:04:02;;;;;;;5.80;4.80;;;;;;;32.03;47.71;101561.69;107125;1256;25350;-48
2023/06/24 06:06:30;;;;;;;5.30;4.80;;;;;;;32.14;47.56;101560.39;107046;1257;25485;-48
2023/06/24 06:08:57;;;;;;;4.90;4.50;;;;;;;32.18;47.43;101560.02;107128;1258;25380;-51
2023/06/24 06:11:24;;;;;;;8.30;4.70;;;;;;;32.08;47.47;101563.81;107111;1267;25351;-49
2023/06/24 06:13:52;;;;;;;5.20;4.70;;;;;;;32.04;47.33;101563.70;107135;1257;25334;-50
2023/06/24 06:16:19;;;;;;;6.30;5.00;;;;;;;32.05;47.44;101564.73;107124;1251;25361;-48
2023/06/24 06:18:46;;;;;;;6.50;4.90;;;;;;;32.01;47.54;101565.39;106999;1256;25469;-49
2023/06/24 06:21:13;;;;;;;5.70;5.00;;;;;;;32.00;47.47;101566.98;107113;1263;22724;-50
2023/06/24 06:23:40;;;;;;;5.70;5.20;;;;;;;31.99;47.43;101569.05;107148;1251;25356;-50
2023/06/24 06:26:08;;;;;;;5.60;5.10;;;;;;;31.97;47.47;101570.83;107114;1260;25361;-49
2023/06/24 06:28:36;;;;;;;7.00;5.30;;;;;;;31.96;47.43;101573.64;107015;1260;25332;-49
2023/06/24 06:31:03;;;;;;;5.30;4.50;;;;;;;31.84;47.67;101576.59;107111;1256;25344;-49
2023/06/24 06:33:30;;;;;;;5.60;5.00;;;;;;;31.73;47.92;101575.19;107076;1264;25386;-50
2023/06/24 06:35:58;;;;;;;6.20;5.50;;;;;;;31.61;48.29;101574.09;106887;1272;22532;-49
2023/06/24 06:38:26;;;;;;;6.90;5.40;;;;;;;31.47;48.49;101578.65;107060;1257;25489;-49
2023/06/24 06:40:53;;;;;;;5.40;4.90;;;;;;;31.43;48.63;101581.04;107099;1263;25322;-53
2023/06/24 06:43:21;;;;;;;5.10;4.60;;;;;;;31.30;49.15;101576.16;107049;1265;25321;-54
2023/06/24 06:45:48;;;;;;;5.10;4.60;;;;;;;31.19;49.34;101576.56;107080;1256;25337;-48
2023/06/24 06:48:15;;;;;;;5.30;4.80;;;;;;;31.06;49.64;101582.66;107109;1257;25360;-50
2023/06/24 06:50:42;;;;;;;6.10;5.10;;;;;;;30.95;50.06;101584.11;107175;1257;25563;-53
2023/06/24 06:53:09;;;;;;;5.70;5.00;;;;;;;30.83;50.32;101581.02;107084;1263;25337;-49
2023/06/24 06:55:37;;;;;;;6.70;4.80;;;;;;;30.74;50.66;101577.48;106825;1271;25363;-48
2023/06/24 06:58:04;;;;;;;6.80;4.50;;;;;;;30.69;50.95;101579.17;107062;1263;22546;-48
2023/06/24 07:00:32;;;;;;;6.00;5.10;;;;;;;30.68;51.22;101572.29;106730;1273;25508;-48
2023/06/24 07:02:59;;;;;;;5.10;4.70;;;;;;;30.74;51.51;101570.30;107095;1256;25360;-49
2023/06/24 07:05:26;;;;;;;5.70;4.90;;;;;;;30.84;51.65;101561.98;107068;1251;25481;-49
2023/06/24 07:07:55;;;;;;;5.90;5.00;;;;;;;30.91;51.56;101547.16;106776;1273;24332;-48
2023/06/24 07:10:21;;;;;;;6.10;5.50;;;;;;;30.98;51.48;101532.37;106800;1258;25482;-49
2023/06/24 07:12:48;;;;;;;8.40;5.40;;;;;;;31.01;51.35;101535.44;107044;1263;25340;-48
2023/06/24 07:15:19;;;;;;;5.40;4.90;;;;;;;31.03;51.34;101541.13;107009;1269;25474;-49
2023/06/24 07:17:46;;;;;;;9.90;5.50;;;;;;;31.04;51.41;101543.90;107103;1268;25429;-49
2023/06/24 07:20:13;;;;;;;6.00;5.20;;;;;;;31.06;51.57;101541.74;106914;1267;25360;-50
2023/06/24 07:22:41;;;;;;;7.00;5.40;;;;;;;31.08;51.54;101546.54;107106;1256;25328;-50
2023/06/24 07:25:09;;;;;;;5.60;5.10;;;;;;;31.13;51.47;101547.52;107032;1264;25408;-49
2023/06/24 07:27:38;;;;;;;6.00;5.40;;;;;;;31.20;51.42;101547.45;106903;1270;25349;-50
2023/06/24 07:30:06;;;;;;;6.00;5.10;;;;;;;31.26;51.26;101545.52;107148;1260;22533;-49
2023/06/24 07:32:33;;;;;;;5.30;4.80;;;;;;;31.34;51.11;101542.30;107041;1263;22666;-50
2023/06/24 07:35:00;;;;;;;7.70;5.60;;;;;;;31.41;50.94;101553.85;107043;1262;25781;-49
2023/06/24 07:37:27;;;;;;;6.70;6.00;;;;;;;31.45;50.94;101555.19;107200;1267;25319;-49
2023/06/24 07:39:54;;;;;;;5.70;5.20;;;;;;;31.48;50.82;101551.35;107130;1253;25376;-50
2023/06/24 07:42:21;;;;;;;6.40;5.70;;;;;;;31.49;50.66;101552.10;107068;1258;25322;-50
2023/06/24 07:44:48;;;;;;;7.10;5.60;;;;;;;31.48;50.82;101557.40;107082;1267;25388;-49
2023/06/24 07:47:16;;;;;;;6.70;5.90;;;;;;;31.48;50.87;101566.27;107013;1260;25383;-49
2023/06/24 07:49:43;;;;;;;8.60;6.20;;;;;;;31.45;50.67;101560.79;107051;1256;22647;-49
2023/06/24 07:52:10;;;;;;;8.50;5.90;;;;;;;31.42;50.95;101556.77;107076;1259;25322;-53
2023/06/24 07:54:37;;;;;;;5.50;5.10;;;;;;;31.40;50.97;101562.55;107064;1260;25363;-50
2023/06/24 07:57:04;;;;;;;7.50;5.80;;;;;;;31.36;50.96;101575.58;106548;1267;25484;-48
2023/06/24 07:59:33;;;;;;;6.80;4.80;;;;;;;31.33;50.67;101581.45;107037;1262;25433;-49
2023/06/24 08:02:00;;;;;;;5.60;5.00;;;;;;;31.27;50.61;101583.09;107145;1263;25485;-55
2023/06/24 08:04:26;;;;;;;5.60;5.00;;;;;;;31.21;50.64;101584.81;107035;1267;25370;-49
2023/06/24 08:06:54;;;;;;;8.40;5.60;;;;;;;31.11;50.69;101581.77;106730;1266;25363;-54
2023/06/24 08:09:21;;;;;;;6.00;5.50;;;;;;;31.02;50.90;101588.95;107062;1259;25398;-49
2023/06/24 08:11:48;;;;;;;5.80;5.20;;;;;;;30.91;51.10;101588.41;107072;1251;25360;-49
2023/06/24 08:14:15;;;;;;;5.50;5.00;;;;;;;30.84;51.17;101589.70;107121;1253;24195;-49
2023/06/24 08:16:42;;;;;;;7.20;5.40;;;;;;;30.79;51.15;101584.50;107107;1258;25398;-48
2023/06/24 08:19:09;;;;;;;6.70;5.00;;;;;;;30.72;51.31;101585.27;107021;1261;25057;-50
2023/06/24 08:21:37;;;;;;;7.10;5.00;;;;;;;30.68;51.50;101585.73;107089;1260;25321;-50
2023/06/24 08:24:05;;;;;;;5.40;4.90;;;;;;;30.64;51.59;101579.48;107117;1263;25349;-49
2023/06/24 08:26:32;;;;;;;6.30;5.10;;;;;;;30.61;51.82;101584.90;107128;1251;22570;-50
2023/06/24 08:28:59;;;;;;;6.50;4.90;;;;;;;30.60;51.83;101585.78;106934;1253;25321;-50
2023/06/24 08:31:31;;;;;;;5.70;4.80;;;;;;;30.61;51.92;101583.01;106971;1256;23855;-51
2023/06/24 08:34:02;;;;;;;6.90;5.00;;;;;;;30.63;51.92;101584.02;106849;1263;24375;-51
2023/06/24 08:36:30;;;;;;;6.50;4.90;;;;;;;30.66;52.02;101583.56;106887;1251;25836;-51
2023/06/24 08:38:57;;;;;;;5.30;4.80;;;;;;;30.68;51.99;101579.60;107194;1256;25395;-49
2023/06/24 08:41:27;;;;;;;6.10;5.20;;;;;;;30.70;51.96;101581.59;107081;1256;22553;-50
2023/06/24 08:43:54;;;;;;;8.00;5.00;;;;;;;30.73;51.82;101582.41;106802;1269;25469;-49
2023/06/24 08:46:21;;;;;;;6.10;5.00;;;;;;;30.77;51.81;101579.69;107018;1253;22748;-49
2023/06/24 08:48:48;;;;;;;5.90;4.90;;;;;;;30.80;51.94;101579.58;106807;1262;25347;-50
2023/06/24 08:51:18;;;;;;;7.50;5.40;;;;;;;30.83;51.90;101573.53;107146;1256;25243;-48
2023/06/24 08:53:45;;;;;;;6.90;5.00;;;;;;;30.87;51.87;101570.12;106850;1257;23958;-49
2023/06/24 08:56:12;;;;;;;7.70;4.70;;;;;;;30.91;51.83;101563.67;106960;1254;25363;-48
2023/06/24 08:58:40;;;;;;;5.40;4.80;;;;;;;30.95;51.72;101561.31;106896;1257;25372;-48
2023/06/24 09:01:07;;;;;;;5.10;4.70;;;;;;;30.99;51.53;101558.27;106828;1271;25363;-48
2023/06/24 09:03:36;;;;;;;5.40;4.80;;;;;;;31.01;51.50;101563.91;107062;1252;25360;-49
2023/06/24 09:06:03;;;;;;;4.70;4.20;;;;;;;31.02;51.36;101562.71;107049;1253;25344;-48
2023/06/24 09:08:31;;;;;;;5.70;4.80;;;;;;;31.03;51.32;101559.75;106520;1275;25345;-48
2023/06/24 09:10:58;;;;;;;5.80;5.20;;;;;;;31.02;51.13;101562.55;107091;1257;25441;-48
2023/06/24 09:13:43;;;;;;;5.10;4.60;;;;;;;30.99;51.34;101566.08;107163;1253;25463;-49
2023/06/24 09:16:14;;;;;;;5.20;4.70;;;;;;;30.96;51.49;101569.06;107066;1257;25360;-48
2023/06/24 09:18:41;;;;;;;6.80;4.80;;;;;;;30.94;51.46;101563.93;107097;1264;25409;-48
2023/06/24 09:21:10;;;;;;;5.80;5.20;;;;;;;30.93;51.47;101566.90;107132;1256;25339;-49
2023/06/24 09:23:38;;;;;;;5.20;4.80;;;;;;;30.91;51.62;101565.41;107052;1262;25471;-48
2023/06/24 09:26:10;;;;;;;5.30;4.80;;;;;;;30.91;51.55;101566.38;107140;1262;25388;-49
2023/06/24 09:28:38;;;;;;;6.50;5.10;;;;;;;30.91;51.58;101566.55;107086;1260;24378;-47
2023/06/24 09:31:06;;;;;;;6.40;4.60;;;;;;;30.92;51.60;101568.06;107058;1252;25460;-49
2023/06/24 09:33:47;;;;;;;4.90;4.50;;;;;;;30.93;51.53;101569.36;106854;1258;24185;-49
2023/06/24 09:36:14;;;;;;;6.00;4.90;;;;;;;30.94;51.44;101568.73;107051;1256;25470;-48
2023/06/24 09:38:44;;;;;;;6.00;4.00;;;;;;;30.95;51.41;101567.77;107110;1264;25354;-48
2023/06/24 09:41:11;;;;;;;6.60;4.90;;;;;;;30.95;51.47;101566.64;107031;1259;22632;-49
2023/06/24 09:43:43;;;;;;;5.40;4.60;;;;;;;30.95;51.31;101564.36;106791;1257;25591;-47
2023/06/24 09:46:11;;;;;;;5.00;4.50;;;;;;;30.95;51.36;101565.77;106816;1260;24600;-49
2023/06/24 09:48:38;;;;;;;5.40;4.90;;;;;;;30.95;51.43;101563.61;106996;1265;25363;-49
2023/06/24 09:51:05;;;;;;;5.70;3.90;;;;;;;30.95;51.42;101562.34;106895;1257;25373;-49
2023/06/24 09:53:34;;;;;;;5.70;5.00;;;;;;;30.95;51.42;101560.96;107059;1267;24410;-48
2023/06/24 09:56:03;;;;;;;5.70;4.60;;;;;;;30.94;51.48;101564.95;106840;1265;22540;-51
2023/06/24 09:58:32;;;;;;;5.70;4.70;;;;;;;30.96;51.66;101570.73;107063;1252;24262;-48
2023/06/24 10:01:02;;;;;;;5.00;4.40;;;;;;;30.99;51.77;101568.10;106936;1259;25350;-48
2023/06/24 10:03:30;;;;;;;5.90;4.80;;;;;;;31.01;51.70;101564.11;107125;1268;25335;-48
2023/06/24 10:05:57;;;;;;;5.60;4.70;;;;;;;31.02;51.57;101557.91;106870;1257;24237;-47
2023/06/24 10:08:24;;;;;;;5.40;4.50;;;;;;;30.99;51.71;101558.73;107036;1257;25322;-53
2023/06/24 10:10:51;;;;;;;7.40;5.30;;;;;;;31.08;51.35;101559.27;107072;1256;25373;-48
2023/06/24 10:13:18;;;;;;;5.70;4.90;;;;;;;31.12;51.23;101559.77;107096;1251;23319;-48
2023/06/24 10:15:46;;;;;;;5.20;4.50;;;;;;;31.14;51.26;101559.94;107035;1256;25382;-48
2023/06/24 10:18:32;;;;;;;6.70;5.10;;;;;;;31.19;51.16;101562.40;107180;1267;25348;-49
2023/06/24 10:20:59;;;;;;;5.00;4.30;;;;;;;31.21;51.02;101562.55;107176;1267;23868;-48
2023/06/24 10:23:31;;;;;;;6.50;4.40;;;;;;;31.17;51.20;101560.05;107082;1259;24209;-48
2023/06/24 10:25:58;;;;;;;4.90;4.40;;;;;;;31.22;51.04;101555.61;107027;1262;22656;-50
2023/06/24 10:28:25;;;;;;;6.00;4.90;;;;;;;31.25;50.90;101557.13;106869;1265;25350;-49
2023/06/24 10:30:56;;;;;;;6.10;4.70;;;;;;;31.27;50.88;101557.50;106777;1273;25449;-48
2023/06/24 10:33:24;;;;;;;6.20;4.70;;;;;;;31.28;50.77;101557.52;107087;1258;23875;-48
2023/06/24 10:35:52;;;;;;;5.90;4.70;;;;;;;31.28;50.69;101556.10;106840;1256;22543;-47
2023/06/24 10:38:19;;;;;;;6.50;4.70;;;;;;;31.30;50.55;101547.86;106844;1256;25335;-49
2023/06/24 10:40:47;;;;;;;6.30;4.40;;;;;;;31.31;50.37;101545.05;106830;1264;25322;-49
2023/06/24 10:43:23;;;;;;;5.20;4.30;;;;;;;31.28;50.44;101543.40;106815;1266;22530;-47
2023/06/24 10:45:51;;;;;;;5.50;4.60;;;;;;;31.22;50.65;101539.85;107118;1252;25364;-50
2023/06/24 10:48:22;;;;;;;6.40;4.70;;;;;;;31.18;50.59;101536.33;107089;1257;22574;-48
2023/06/24 10:50:49;;;;;;;7.40;4.70;;;;;;;31.12;50.77;101535.95;107021;1270;25472;-49
2023/06/24 10:53:18;;;;;;;6.00;4.90;;;;;;;31.10;50.78;101527.27;106911;1267;25335;-47
2023/06/24 10:55:48;;;;;;;5.10;4.20;;;;;;;31.06;50.92;101525.48;107151;1262;22552;-49
2023/06/24 10:58:15;;;;;;;5.50;4.20;;;;;;;31.03;50.80;101523.11;107016;1257;24188;-47
2023/06/24 11:00:45;;;;;;;4.70;4.20;;;;;;;30.98;50.92;101519.21;107146;1255;25347;-49
2023/06/24 11:03:14;;;;;;;7.70;4.60;;;;;;;30.95;50.99;101511.30;107066;1256;24213;-49
2023/06/24 11:05:44;;;;;;;7.20;4.30;;;;;;;30.92;51.15;101507.16;107118;1256;23872;-49
2023/06/24 11:08:10;;;;;;;6.00;4.70;;;;;;;30.89;51.10;101506.48;106926;1265;25415;-49
2023/06/24 11:10:45;;;;;;;5.40;4.90;;;;;;;30.88;51.25;101505.50;107157;1268;24246;-48
2023/06/24 11:13:12;;;;;;;8.80;5.20;;;;;;;30.88;51.29;101499.48;106731;1258;25350;-48
2023/06/24 11:15:40;;;;;;;6.40;4.50;;;;;;;30.88;51.38;101496.77;107117;1264;25399;-47
2023/06/24 11:18:09;;;;;;;9.70;5.00;;;;;;;30.88;51.35;101494.23;106838;1260;24251;-49
2023/06/24 11:20:38;;;;;;;5.50;4.20;;;;;;;30.88;51.32;101495.17;107106;1262;22530;-48
2023/06/24 11:23:10;;;;;;;8.40;4.70;;;;;;;30.87;51.31;101495.73;107124;1251;22524;-48